sensor_id;sensor_type;location;lat;lon;timestamp;P1;durP1;ratioP1;P2;durP2;ratioP2
18574;SDS011;9417;16.484;102.872;2022-12-16T00:00:51;106.20;;;70.13;;
18574;SDS011;9417;16.484;102.872;2022-12-16T00:03:12;106.68;;;66.63;;
18574;SDS011;9417;16.484;102.872;2022-12-16T00:05:19;97.63;;;65.05;;
18574;SDS011;9417;16.484;102.872;2022-12-16T00:07:27;99.68;;;64.47;;
18574;SDS011;9417;16.484;102.872;2022-12-16T00:09:34;91.32;;;62.80;;
18574;SDS011;9417;16.484;102.872;2022-12-16T00:11:41;95.05;;;63.05;;
18574;SDS011;9417;16.484;102.872;2022-12-16T00:13:48;92.25;;;61.38;;
18574;SDS011;9417;16.484;102.872;2022-12-16T00:15:56;102.70;;;63.95;;
18574;SDS011;9417;16.484;102.872;2022-12-16T00:18:04;98.88;;;65.18;;
18574;SDS011;9417;16.484;102.872;2022-12-16T00:20:13;105.90;;;66.75;;
18574;SDS011;9417;16.484;102.872;2022-12-16T00:22:20;96.40;;;64.57;;
18574;SDS011;9417;16.484;102.872;2022-12-16T00:24:27;95.43;;;62.92;;
18574;SDS011;9417;16.484;102.872;2022-12-16T00:26:35;102.50;;;66.70;;
18574;SDS011;9417;16.484;102.872;2022-12-16T00:28:42;103.22;;;68.07;;
18574;SDS011;9417;16.484;102.872;2022-12-16T00:30:49;107.47;;;67.40;;
18574;SDS011;9417;16.484;102.872;2022-12-16T00:32:58;109.22;;;69.70;;
18574;SDS011;9417;16.484;102.872;2022-12-16T00:35:05;109.63;;;72.82;;
18574;SDS011;9417;16.484;102.872;2022-12-16T00:37:14;132.63;;;84.22;;
18574;SDS011;9417;16.484;102.872;2022-12-16T00:39:21;140.13;;;89.95;;
18574;SDS011;9417;16.484;102.872;2022-12-16T00:41:28;139.85;;;88.55;;
18574;SDS011;9417;16.484;102.872;2022-12-16T00:43:36;135.05;;;85.22;;
18574;SDS011;9417;16.484;102.872;2022-12-16T00:45:44;126.32;;;81.20;;
18574;SDS011;9417;16.484;102.872;2022-12-16T00:47:53;121.07;;;76.20;;
18574;SDS011;9417;16.484;102.872;2022-12-16T00:50:00;116.55;;;73.57;;
18574;SDS011;9417;16.484;102.872;2022-12-16T00:52:08;115.15;;;71.45;;
18574;SDS011;9417;16.484;102.872;2022-12-16T00:54:17;113.85;;;71.72;;
18574;SDS011;9417;16.484;102.872;2022-12-16T00:56:24;97.25;;;58.10;;
18574;SDS011;9417;16.484;102.872;2022-12-16T00:58:31;83.90;;;51.47;;
18574;SDS011;9417;16.484;102.872;2022-12-16T01:00:38;77.20;;;49.72;;
18574;SDS011;9417;16.484;102.872;2022-12-16T01:02:46;72.68;;;46.40;;
18574;SDS011;9417;16.484;102.872;2022-12-16T01:04:55;71.13;;;45.33;;
18574;SDS011;9417;16.484;102.872;2022-12-16T01:07:02;72.65;;;45.60;;
18574;SDS011;9417;16.484;102.872;2022-12-16T01:09:09;69.75;;;45.17;;
18574;SDS011;9417;16.484;102.872;2022-12-16T01:11:18;69.63;;;45.38;;
18574;SDS011;9417;16.484;102.872;2022-12-16T01:13:25;75.55;;;47.17;;
18574;SDS011;9417;16.484;102.872;2022-12-16T01:15:33;72.10;;;45.63;;
18574;SDS011;9417;16.484;102.872;2022-12-16T01:17:42;72.57;;;45.13;;
18574;SDS011;9417;16.484;102.872;2022-12-16T01:19:54;72.50;;;47.42;;
18574;SDS011;9417;16.484;102.872;2022-12-16T01:22:01;75.07;;;47.03;;
18574;SDS011;9417;16.484;102.872;2022-12-16T01:24:09;79.85;;;47.60;;
18574;SDS011;9417;16.484;102.872;2022-12-16T01:26:18;79.22;;;49.33;;
18574;SDS011;9417;16.484;102.872;2022-12-16T01:28:25;80.88;;;51.00;;
18574;SDS011;9417;16.484;102.872;2022-12-16T01:30:33;81.03;;;51.13;;
18574;SDS011;9417;16.484;102.872;2022-12-16T01:32:40;88.28;;;53.80;;
18574;SDS011;9417;16.484;102.872;2022-12-16T01:34:48;76.75;;;49.38;;
18574;SDS011;9417;16.484;102.872;2022-12-16T01:36:57;77.68;;;51.50;;
18574;SDS011;9417;16.484;102.872;2022-12-16T01:39:04;86.13;;;54.05;;
18574;SDS011;9417;16.484;102.872;2022-12-16T01:41:16;85.20;;;53.10;;
18574;SDS011;9417;16.484;102.872;2022-12-16T01:43:26;81.45;;;49.70;;
18574;SDS011;9417;16.484;102.872;2022-12-16T01:45:35;77.03;;;49.97;;
18574;SDS011;9417;16.484;102.872;2022-12-16T01:47:43;85.40;;;51.80;;
18574;SDS011;9417;16.484;102.872;2022-12-16T01:49:51;90.97;;;54.08;;
18574;SDS011;9417;16.484;102.872;2022-12-16T01:52:00;78.32;;;51.47;;
18574;SDS011;9417;16.484;102.872;2022-12-16T01:54:13;82.22;;;51.45;;
18574;SDS011;9417;16.484;102.872;2022-12-16T01:56:26;70.32;;;45.80;;
18574;SDS011;9417;16.484;102.872;2022-12-16T01:58:35;73.65;;;46.45;;
18574;SDS011;9417;16.484;102.872;2022-12-16T02:00:44;76.45;;;48.08;;
18574;SDS011;9417;16.484;102.872;2022-12-16T02:02:52;74.00;;;44.00;;
18574;SDS011;9417;16.484;102.872;2022-12-16T02:05:00;75.28;;;45.75;;
18574;SDS011;9417;16.484;102.872;2022-12-16T02:07:26;71.18;;;45.47;;
18574;SDS011;9417;16.484;102.872;2022-12-16T02:09:33;66.30;;;44.83;;
18574;SDS011;9417;16.484;102.872;2022-12-16T02:11:53;73.72;;;44.08;;
18574;SDS011;9417;16.484;102.872;2022-12-16T02:14:20;64.57;;;41.30;;
18574;SDS011;9417;16.484;102.872;2022-12-16T02:16:48;66.18;;;39.58;;
18574;SDS011;9417;16.484;102.872;2022-12-16T02:19:04;62.38;;;39.95;;
18574;SDS011;9417;16.484;102.872;2022-12-16T02:21:34;56.72;;;37.58;;
18574;SDS011;9417;16.484;102.872;2022-12-16T02:26:29;54.50;;;36.35;;
18574;SDS011;9417;16.484;102.872;2022-12-16T02:29:14;51.15;;;32.83;;
18574;SDS011;9417;16.484;102.872;2022-12-16T02:31:39;57.20;;;37.05;;
18574;SDS011;9417;16.484;102.872;2022-12-16T02:33:59;54.65;;;35.42;;
18574;SDS011;9417;16.484;102.872;2022-12-16T02:36:16;51.42;;;33.10;;
18574;SDS011;9417;16.484;102.872;2022-12-16T02:38:38;45.28;;;29.83;;
18574;SDS011;9417;16.484;102.872;2022-12-16T02:40:59;44.92;;;29.45;;
18574;SDS011;9417;16.484;102.872;2022-12-16T02:43:10;43.53;;;28.60;;
18574;SDS011;9417;16.484;102.872;2022-12-16T02:45:23;46.50;;;29.10;;
18574;SDS011;9417;16.484;102.872;2022-12-16T02:47:35;50.75;;;29.90;;
18574;SDS011;9417;16.484;102.872;2022-12-16T02:49:47;41.63;;;27.70;;
18574;SDS011;9417;16.484;102.872;2022-12-16T02:51:57;42.00;;;28.77;;
18574;SDS011;9417;16.484;102.872;2022-12-16T02:54:06;43.80;;;30.02;;
18574;SDS011;9417;16.484;102.872;2022-12-16T02:56:20;58.63;;;34.90;;
18574;SDS011;9417;16.484;102.872;2022-12-16T02:58:36;38.92;;;24.95;;
18574;SDS011;9417;16.484;102.872;2022-12-16T03:00:53;43.33;;;25.92;;
18574;SDS011;9417;16.484;102.872;2022-12-16T03:03:07;40.30;;;27.48;;
18574;SDS011;9417;16.484;102.872;2022-12-16T03:05:21;44.95;;;27.90;;
18574;SDS011;9417;16.484;102.872;2022-12-16T03:07:31;51.75;;;30.38;;
18574;SDS011;9417;16.484;102.872;2022-12-16T03:09:41;43.20;;;25.58;;
18574;SDS011;9417;16.484;102.872;2022-12-16T03:11:51;39.13;;;25.67;;
18574;SDS011;9417;16.484;102.872;2022-12-16T03:14:00;34.78;;;22.58;;
18574;SDS011;9417;16.484;102.872;2022-12-16T03:16:10;33.70;;;23.65;;
18574;SDS011;9417;16.484;102.872;2022-12-16T03:18:21;39.05;;;24.45;;
18574;SDS011;9417;16.484;102.872;2022-12-16T03:20:31;34.67;;;22.38;;
18574;SDS011;9417;16.484;102.872;2022-12-16T03:22:41;36.20;;;22.63;;
18574;SDS011;9417;16.484;102.872;2022-12-16T03:24:54;34.78;;;22.17;;
18574;SDS011;9417;16.484;102.872;2022-12-16T03:27:04;38.97;;;23.33;;
18574;SDS011;9417;16.484;102.872;2022-12-16T03:29:17;39.80;;;22.67;;
18574;SDS011;9417;16.484;102.872;2022-12-16T03:31:30;35.70;;;23.02;;
18574;SDS011;9417;16.484;102.872;2022-12-16T03:33:45;30.50;;;22.00;;
18574;SDS011;9417;16.484;102.872;2022-12-16T03:35:57;35.42;;;23.58;;
18574;SDS011;9417;16.484;102.872;2022-12-16T03:38:07;37.95;;;22.08;;
18574;SDS011;9417;16.484;102.872;2022-12-16T03:40:16;36.72;;;23.33;;
18574;SDS011;9417;16.484;102.872;2022-12-16T03:42:26;34.55;;;23.35;;
18574;SDS011;9417;16.484;102.872;2022-12-16T03:44:34;36.80;;;23.85;;
18574;SDS011;9417;16.484;102.872;2022-12-16T03:46:41;38.13;;;23.73;;
18574;SDS011;9417;16.484;102.872;2022-12-16T03:48:51;36.50;;;24.58;;
18574;SDS011;9417;16.484;102.872;2022-12-16T03:50:58;38.42;;;25.00;;
18574;SDS011;9417;16.484;102.872;2022-12-16T03:53:05;37.85;;;25.52;;
18574;SDS011;9417;16.484;102.872;2022-12-16T03:55:13;37.95;;;25.42;;
18574;SDS011;9417;16.484;102.872;2022-12-16T03:57:20;45.42;;;25.67;;
18574;SDS011;9417;16.484;102.872;2022-12-16T03:59:27;37.53;;;24.67;;
18574;SDS011;9417;16.484;102.872;2022-12-16T04:01:34;42.55;;;25.80;;
18574;SDS011;9417;16.484;102.872;2022-12-16T04:03:41;42.88;;;26.02;;
18574;SDS011;9417;16.484;102.872;2022-12-16T04:05:50;41.28;;;26.75;;
18574;SDS011;9417;16.484;102.872;2022-12-16T04:07:58;48.80;;;30.55;;
18574;SDS011;9417;16.484;102.872;2022-12-16T04:10:05;45.60;;;28.08;;
18574;SDS011;9417;16.484;102.872;2022-12-16T04:12:13;44.83;;;26.23;;
18574;SDS011;9417;16.484;102.872;2022-12-16T04:14:52;37.63;;;23.70;;
18574;SDS011;9417;16.484;102.872;2022-12-16T04:17:16;34.05;;;24.55;;
18574;SDS011;9417;16.484;102.872;2022-12-16T04:19:39;35.08;;;23.05;;
18574;SDS011;9417;16.484;102.872;2022-12-16T04:22:11;32.30;;;21.30;;
18574;SDS011;9417;16.484;102.872;2022-12-16T04:24:39;35.40;;;22.73;;
18574;SDS011;9417;16.484;102.872;2022-12-16T04:26:46;30.13;;;20.48;;
18574;SDS011;9417;16.484;102.872;2022-12-16T04:29:17;34.35;;;20.30;;
18574;SDS011;9417;16.484;102.872;2022-12-16T04:31:24;36.50;;;21.90;;
18574;SDS011;9417;16.484;102.872;2022-12-16T04:33:31;29.63;;;19.60;;
18574;SDS011;9417;16.484;102.872;2022-12-16T04:35:55;30.85;;;20.58;;
18574;SDS011;9417;16.484;102.872;2022-12-16T04:38:20;35.25;;;21.27;;
18574;SDS011;9417;16.484;102.872;2022-12-16T04:40:44;35.15;;;20.88;;
18574;SDS011;9417;16.484;102.872;2022-12-16T04:43:07;30.40;;;19.77;;
18574;SDS011;9417;16.484;102.872;2022-12-16T04:45:32;33.03;;;18.80;;
18574;SDS011;9417;16.484;102.872;2022-12-16T04:47:55;30.65;;;18.65;;
18574;SDS011;9417;16.484;102.872;2022-12-16T04:50:18;27.10;;;19.35;;
18574;SDS011;9417;16.484;102.872;2022-12-16T04:52:42;30.38;;;19.02;;
18574;SDS011;9417;16.484;102.872;2022-12-16T04:55:08;26.10;;;17.27;;
18574;SDS011;9417;16.484;102.872;2022-12-16T04:57:32;27.83;;;18.42;;
18574;SDS011;9417;16.484;102.872;2022-12-16T04:59:56;30.25;;;18.25;;
18574;SDS011;9417;16.484;102.872;2022-12-16T05:02:20;31.73;;;18.17;;
18574;SDS011;9417;16.484;102.872;2022-12-16T05:04:44;27.42;;;17.65;;
18574;SDS011;9417;16.484;102.872;2022-12-16T05:07:07;28.90;;;18.05;;
18574;SDS011;9417;16.484;102.872;2022-12-16T05:09:36;35.53;;;20.05;;
18574;SDS011;9417;16.484;102.872;2022-12-16T05:12:02;31.13;;;19.13;;
18574;SDS011;9417;16.484;102.872;2022-12-16T05:14:25;58.72;;;36.47;;
18574;SDS011;9417;16.484;102.872;2022-12-16T05:16:48;29.90;;;17.45;;
18574;SDS011;9417;16.484;102.872;2022-12-16T05:19:12;26.20;;;17.73;;
18574;SDS011;9417;16.484;102.872;2022-12-16T05:21:50;28.45;;;17.77;;
18574;SDS011;9417;16.484;102.872;2022-12-16T05:24:14;32.30;;;21.55;;
18574;SDS011;9417;16.484;102.872;2022-12-16T05:26:38;22.88;;;15.75;;
18574;SDS011;9417;16.484;102.872;2022-12-16T05:29:03;26.98;;;17.10;;
18574;SDS011;9417;16.484;102.872;2022-12-16T05:31:27;45.90;;;29.45;;
18574;SDS011;9417;16.484;102.872;2022-12-16T05:33:51;63.70;;;36.63;;
18574;SDS011;9417;16.484;102.872;2022-12-16T05:36:14;25.23;;;16.73;;
18574;SDS011;9417;16.484;102.872;2022-12-16T05:38:37;24.00;;;14.98;;
18574;SDS011;9417;16.484;102.872;2022-12-16T05:41:01;28.33;;;16.35;;
18574;SDS011;9417;16.484;102.872;2022-12-16T05:43:26;27.00;;;16.58;;
18574;SDS011;9417;16.484;102.872;2022-12-16T05:45:51;22.73;;;14.02;;
18574;SDS011;9417;16.484;102.872;2022-12-16T05:48:15;27.13;;;14.77;;
18574;SDS011;9417;16.484;102.872;2022-12-16T05:50:39;22.92;;;14.93;;
18574;SDS011;9417;16.484;102.872;2022-12-16T05:53:02;21.40;;;14.73;;
18574;SDS011;9417;16.484;102.872;2022-12-16T05:55:26;19.75;;;14.18;;
18574;SDS011;9417;16.484;102.872;2022-12-16T05:57:49;20.70;;;14.10;;
18574;SDS011;9417;16.484;102.872;2022-12-16T06:00:13;21.90;;;14.93;;
18574;SDS011;9417;16.484;102.872;2022-12-16T06:02:41;23.58;;;14.68;;
18574;SDS011;9417;16.484;102.872;2022-12-16T06:05:05;26.45;;;15.05;;
18574;SDS011;9417;16.484;102.872;2022-12-16T06:07:29;21.25;;;13.85;;
18574;SDS011;9417;16.484;102.872;2022-12-16T06:10:04;24.23;;;14.43;;
18574;SDS011;9417;16.484;102.872;2022-12-16T06:12:28;21.33;;;13.88;;
18574;SDS011;9417;16.484;102.872;2022-12-16T06:14:51;24.48;;;14.32;;
18574;SDS011;9417;16.484;102.872;2022-12-16T06:17:15;18.40;;;14.10;;
18574;SDS011;9417;16.484;102.872;2022-12-16T06:19:40;24.58;;;14.75;;
18574;SDS011;9417;16.484;102.872;2022-12-16T06:22:05;18.17;;;13.50;;
18574;SDS011;9417;16.484;102.872;2022-12-16T06:24:29;23.38;;;13.45;;
18574;SDS011;9417;16.484;102.872;2022-12-16T06:26:52;23.45;;;14.63;;
18574;SDS011;9417;16.484;102.872;2022-12-16T06:29:16;19.80;;;13.88;;
18574;SDS011;9417;16.484;102.872;2022-12-16T06:31:39;24.08;;;14.40;;
18574;SDS011;9417;16.484;102.872;2022-12-16T06:34:03;19.67;;;13.70;;
18574;SDS011;9417;16.484;102.872;2022-12-16T06:36:28;25.80;;;14.38;;
18574;SDS011;9417;16.484;102.872;2022-12-16T06:38:52;22.25;;;14.13;;
18574;SDS011;9417;16.484;102.872;2022-12-16T06:41:15;21.33;;;14.25;;
18574;SDS011;9417;16.484;102.872;2022-12-16T06:43:39;20.55;;;13.63;;
18574;SDS011;9417;16.484;102.872;2022-12-16T06:46:17;17.52;;;13.60;;
18574;SDS011;9417;16.484;102.872;2022-12-16T06:48:41;18.25;;;13.82;;
18574;SDS011;9417;16.484;102.872;2022-12-16T06:51:04;20.52;;;14.05;;
18574;SDS011;9417;16.484;102.872;2022-12-16T06:53:29;23.13;;;15.05;;
18574;SDS011;9417;16.484;102.872;2022-12-16T06:55:55;22.85;;;16.52;;
18574;SDS011;9417;16.484;102.872;2022-12-16T06:58:19;23.80;;;14.30;;
18574;SDS011;9417;16.484;102.872;2022-12-16T07:00:42;22.48;;;14.93;;
18574;SDS011;9417;16.484;102.872;2022-12-16T07:03:04;22.60;;;14.82;;
18574;SDS011;9417;16.484;102.872;2022-12-16T07:05:27;21.40;;;15.35;;
18574;SDS011;9417;16.484;102.872;2022-12-16T07:07:51;18.95;;;14.52;;
18574;SDS011;9417;16.484;102.872;2022-12-16T07:10:16;22.13;;;14.32;;
18574;SDS011;9417;16.484;102.872;2022-12-16T07:12:40;21.05;;;13.60;;
18574;SDS011;9417;16.484;102.872;2022-12-16T07:15:03;34.67;;;23.55;;
18574;SDS011;9417;16.484;102.872;2022-12-16T07:17:28;26.80;;;19.30;;
18574;SDS011;9417;16.484;102.872;2022-12-16T07:19:51;36.75;;;26.40;;
18574;SDS011;9417;16.484;102.872;2022-12-16T07:22:15;27.10;;;18.92;;
18574;SDS011;9417;16.484;102.872;2022-12-16T07:24:38;22.80;;;17.00;;
18574;SDS011;9417;16.484;102.872;2022-12-16T07:27:03;20.73;;;14.88;;
18574;SDS011;9417;16.484;102.872;2022-12-16T07:29:27;22.05;;;14.85;;
18574;SDS011;9417;16.484;102.872;2022-12-16T07:31:50;20.92;;;14.40;;
18574;SDS011;9417;16.484;102.872;2022-12-16T07:34:14;18.40;;;13.15;;
18574;SDS011;9417;16.484;102.872;2022-12-16T07:36:44;22.83;;;13.98;;
18574;SDS011;9417;16.484;102.872;2022-12-16T07:39:08;45.08;;;31.27;;
18574;SDS011;9417;16.484;102.872;2022-12-16T07:41:31;22.67;;;14.52;;
18574;SDS011;9417;16.484;102.872;2022-12-16T07:43:57;18.08;;;13.45;;
18574;SDS011;9417;16.484;102.872;2022-12-16T07:46:20;26.48;;;19.23;;
18574;SDS011;9417;16.484;102.872;2022-12-16T07:48:44;27.55;;;17.27;;
18574;SDS011;9417;16.484;102.872;2022-12-16T07:51:08;21.77;;;15.30;;
18574;SDS011;9417;16.484;102.872;2022-12-16T07:53:31;19.88;;;14.10;;
18574;SDS011;9417;16.484;102.872;2022-12-16T07:55:55;24.48;;;18.00;;
18574;SDS011;9417;16.484;102.872;2022-12-16T07:58:18;20.85;;;15.52;;
18574;SDS011;9417;16.484;102.872;2022-12-16T08:00:43;19.15;;;14.07;;
18574;SDS011;9417;16.484;102.872;2022-12-16T08:03:11;22.77;;;15.02;;
18574;SDS011;9417;16.484;102.872;2022-12-16T08:05:35;20.35;;;13.70;;
18574;SDS011;9417;16.484;102.872;2022-12-16T08:07:58;22.08;;;13.65;;
18574;SDS011;9417;16.484;102.872;2022-12-16T08:10:22;21.17;;;13.77;;
18574;SDS011;9417;16.484;102.872;2022-12-16T08:12:45;19.63;;;13.80;;
18574;SDS011;9417;16.484;102.872;2022-12-16T08:15:10;23.50;;;13.50;;
18574;SDS011;9417;16.484;102.872;2022-12-16T08:17:36;20.35;;;13.98;;
18574;SDS011;9417;16.484;102.872;2022-12-16T08:19:59;19.35;;;13.18;;
18574;SDS011;9417;16.484;102.872;2022-12-16T08:22:22;34.25;;;18.92;;
18574;SDS011;9417;16.484;102.872;2022-12-16T08:24:46;19.42;;;13.35;;
18574;SDS011;9417;16.484;102.872;2022-12-16T08:27:09;18.48;;;13.65;;
18574;SDS011;9417;16.484;102.872;2022-12-16T08:29:33;19.52;;;14.10;;
18574;SDS011;9417;16.484;102.872;2022-12-16T08:31:56;50.10;;;37.78;;
18574;SDS011;9417;16.484;102.872;2022-12-16T08:34:36;17.63;;;13.68;;
18574;SDS011;9417;16.484;102.872;2022-12-16T08:37:00;20.27;;;13.05;;
18574;SDS011;9417;16.484;102.872;2022-12-16T08:39:24;42.22;;;33.28;;
18574;SDS011;9417;16.484;102.872;2022-12-16T08:44:29;18.75;;;13.85;;
18574;SDS011;9417;16.484;102.872;2022-12-16T08:46:52;29.00;;;18.33;;
18574;SDS011;9417;16.484;102.872;2022-12-16T08:49:15;24.05;;;16.92;;
18574;SDS011;9417;16.484;102.872;2022-12-16T08:51:40;31.52;;;20.23;;
18574;SDS011;9417;16.484;102.872;2022-12-16T08:54:04;16.95;;;12.38;;
18574;SDS011;9417;16.484;102.872;2022-12-16T08:56:40;15.00;;;11.30;;
18574;SDS011;9417;16.484;102.872;2022-12-16T08:59:04;18.55;;;12.45;;
18574;SDS011;9417;16.484;102.872;2022-12-16T09:01:27;20.83;;;14.45;;
18574;SDS011;9417;16.484;102.872;2022-12-16T09:03:52;16.52;;;11.38;;
18574;SDS011;9417;16.484;102.872;2022-12-16T09:06:16;17.77;;;12.23;;
18574;SDS011;9417;16.484;102.872;2022-12-16T09:08:44;17.13;;;11.30;;
18574;SDS011;9417;16.484;102.872;2022-12-16T09:11:07;20.50;;;11.88;;
18574;SDS011;9417;16.484;102.872;2022-12-16T09:13:31;15.52;;;11.10;;
18574;SDS011;9417;16.484;102.872;2022-12-16T09:15:55;17.52;;;11.93;;
18574;SDS011;9417;16.484;102.872;2022-12-16T09:18:21;19.77;;;12.55;;
18574;SDS011;9417;16.484;102.872;2022-12-16T09:20:44;16.80;;;12.93;;
18574;SDS011;9417;16.484;102.872;2022-12-16T09:23:12;15.00;;;11.38;;
18574;SDS011;9417;16.484;102.872;2022-12-16T09:25:49;19.05;;;11.40;;
18574;SDS011;9417;16.484;102.872;2022-12-16T09:28:12;16.10;;;11.30;;
18574;SDS011;9417;16.484;102.872;2022-12-16T09:30:36;21.48;;;14.85;;
18574;SDS011;9417;16.484;102.872;2022-12-16T09:33:00;19.48;;;12.43;;
18574;SDS011;9417;16.484;102.872;2022-12-16T09:35:24;28.98;;;15.13;;
18574;SDS011;9417;16.484;102.872;2022-12-16T09:37:47;20.45;;;13.95;;
18574;SDS011;9417;16.484;102.872;2022-12-16T09:40:13;19.33;;;15.68;;
18574;SDS011;9417;16.484;102.872;2022-12-16T09:42:46;18.63;;;14.07;;
18574;SDS011;9417;16.484;102.872;2022-12-16T09:45:15;25.65;;;14.45;;
18574;SDS011;9417;16.484;102.872;2022-12-16T09:47:45;21.83;;;16.60;;
18574;SDS011;9417;16.484;102.872;2022-12-16T09:50:17;33.97;;;19.98;;
18574;SDS011;9417;16.484;102.872;2022-12-16T09:52:43;31.85;;;20.25;;
18574;SDS011;9417;16.484;102.872;2022-12-16T09:55:14;38.50;;;23.17;;
18574;SDS011;9417;16.484;102.872;2022-12-16T09:57:46;30.83;;;17.92;;
18574;SDS011;9417;16.484;102.872;2022-12-16T10:00:13;26.98;;;17.27;;
18574;SDS011;9417;16.484;102.872;2022-12-16T10:02:43;32.17;;;19.80;;
18574;SDS011;9417;16.484;102.872;2022-12-16T10:05:10;32.97;;;19.63;;
18574;SDS011;9417;16.484;102.872;2022-12-16T10:07:39;27.75;;;17.85;;
18574;SDS011;9417;16.484;102.872;2022-12-16T10:10:14;27.40;;;18.52;;
18574;SDS011;9417;16.484;102.872;2022-12-16T10:12:42;24.60;;;17.17;;
18574;SDS011;9417;16.484;102.872;2022-12-16T10:15:13;26.80;;;18.58;;
18574;SDS011;9417;16.484;102.872;2022-12-16T10:17:45;26.08;;;16.95;;
18574;SDS011;9417;16.484;102.872;2022-12-16T10:20:11;25.55;;;17.05;;
18574;SDS011;9417;16.484;102.872;2022-12-16T10:22:43;25.02;;;16.70;;
18574;SDS011;9417;16.484;102.872;2022-12-16T10:25:12;27.45;;;17.02;;
18574;SDS011;9417;16.484;102.872;2022-12-16T10:27:41;27.92;;;17.58;;
18574;SDS011;9417;16.484;102.872;2022-12-16T10:30:10;26.80;;;16.48;;
18574;SDS011;9417;16.484;102.872;2022-12-16T10:32:37;24.25;;;15.90;;
18574;SDS011;9417;16.484;102.872;2022-12-16T10:35:08;25.08;;;15.13;;
18574;SDS011;9417;16.484;102.872;2022-12-16T10:37:41;22.80;;;13.73;;
18574;SDS011;9417;16.484;102.872;2022-12-16T10:40:05;25.27;;;14.50;;
18574;SDS011;9417;16.484;102.872;2022-12-16T10:42:39;28.42;;;15.02;;
18574;SDS011;9417;16.484;102.872;2022-12-16T10:45:16;25.77;;;15.90;;
18574;SDS011;9417;16.484;102.872;2022-12-16T10:47:44;25.75;;;14.45;;
18574;SDS011;9417;16.484;102.872;2022-12-16T10:50:10;28.45;;;17.05;;
18574;SDS011;9417;16.484;102.872;2022-12-16T10:52:35;24.23;;;16.42;;
18574;SDS011;9417;16.484;102.872;2022-12-16T10:55:18;33.75;;;21.88;;
18574;SDS011;9417;16.484;102.872;2022-12-16T10:57:52;32.58;;;20.55;;
18574;SDS011;9417;16.484;102.872;2022-12-16T11:00:37;28.38;;;17.60;;
18574;SDS011;9417;16.484;102.872;2022-12-16T11:03:18;33.67;;;19.88;;
18574;SDS011;9417;16.484;102.872;2022-12-16T11:05:43;33.55;;;19.73;;
18574;SDS011;9417;16.484;102.872;2022-12-16T11:08:14;32.30;;;18.42;;
18574;SDS011;9417;16.484;102.872;2022-12-16T11:10:46;31.65;;;19.95;;
18574;SDS011;9417;16.484;102.872;2022-12-16T11:13:24;35.50;;;20.60;;
18574;SDS011;9417;16.484;102.872;2022-12-16T11:15:50;34.97;;;20.75;;
18574;SDS011;9417;16.484;102.872;2022-12-16T11:18:32;30.20;;;19.73;;
18574;SDS011;9417;16.484;102.872;2022-12-16T11:21:11;34.50;;;21.75;;
18574;SDS011;9417;16.484;102.872;2022-12-16T11:23:36;40.17;;;23.90;;
18574;SDS011;9417;16.484;102.872;2022-12-16T11:26:06;36.60;;;22.95;;
18574;SDS011;9417;16.484;102.872;2022-12-16T11:28:38;36.28;;;23.27;;
18574;SDS011;9417;16.484;102.872;2022-12-16T11:31:05;43.80;;;25.85;;
18574;SDS011;9417;16.484;102.872;2022-12-16T11:33:35;45.40;;;27.35;;
18574;SDS011;9417;16.484;102.872;2022-12-16T11:36:06;41.55;;;26.98;;
18574;SDS011;9417;16.484;102.872;2022-12-16T11:38:37;45.08;;;27.20;;
18574;SDS011;9417;16.484;102.872;2022-12-16T11:41:03;43.38;;;26.55;;
18574;SDS011;9417;16.484;102.872;2022-12-16T11:43:40;46.17;;;26.75;;
18574;SDS011;9417;16.484;102.872;2022-12-16T11:46:11;43.05;;;26.65;;
18574;SDS011;9417;16.484;102.872;2022-12-16T11:48:48;45.97;;;28.42;;
18574;SDS011;9417;16.484;102.872;2022-12-16T11:51:15;57.58;;;33.42;;
18574;SDS011;9417;16.484;102.872;2022-12-16T11:53:43;43.70;;;27.42;;
18574;SDS011;9417;16.484;102.872;2022-12-16T11:56:11;44.65;;;30.02;;
18574;SDS011;9417;16.484;102.872;2022-12-16T11:58:39;45.92;;;28.02;;
18574;SDS011;9417;16.484;102.872;2022-12-16T12:01:24;55.33;;;33.10;;
18574;SDS011;9417;16.484;102.872;2022-12-16T12:03:52;64.13;;;40.03;;
18574;SDS011;9417;16.484;102.872;2022-12-16T12:06:18;65.78;;;39.92;;
18574;SDS011;9417;16.484;102.872;2022-12-16T12:08:51;61.95;;;38.45;;
18574;SDS011;9417;16.484;102.872;2022-12-16T12:11:21;65.43;;;41.65;;
18574;SDS011;9417;16.484;102.872;2022-12-16T12:13:54;58.47;;;35.33;;
18574;SDS011;9417;16.484;102.872;2022-12-16T12:16:27;65.65;;;42.30;;
18574;SDS011;9417;16.484;102.872;2022-12-16T12:18:57;70.05;;;43.78;;
18574;SDS011;9417;16.484;102.872;2022-12-16T12:21:25;74.07;;;45.30;;
18574;SDS011;9417;16.484;102.872;2022-12-16T12:23:52;74.00;;;44.60;;
18574;SDS011;9417;16.484;102.872;2022-12-16T12:26:20;67.10;;;43.22;;
18574;SDS011;9417;16.484;102.872;2022-12-16T12:28:50;76.55;;;42.97;;
18574;SDS011;9417;16.484;102.872;2022-12-16T12:31:24;75.00;;;43.08;;
18574;SDS011;9417;16.484;102.872;2022-12-16T12:33:59;66.85;;;40.00;;
18574;SDS011;9417;16.484;102.872;2022-12-16T12:36:30;62.28;;;39.28;;
18574;SDS011;9417;16.484;102.872;2022-12-16T12:39:02;69.20;;;41.95;;
18574;SDS011;9417;16.484;102.872;2022-12-16T12:41:40;68.28;;;42.92;;
18574;SDS011;9417;16.484;102.872;2022-12-16T12:44:22;74.35;;;40.45;;
18574;SDS011;9417;16.484;102.872;2022-12-16T12:47:05;69.30;;;40.35;;
18574;SDS011;9417;16.484;102.872;2022-12-16T12:49:34;72.97;;;42.60;;
18574;SDS011;9417;16.484;102.872;2022-12-16T12:52:08;73.63;;;43.22;;
18574;SDS011;9417;16.484;102.872;2022-12-16T12:54:42;68.22;;;40.08;;
18574;SDS011;9417;16.484;102.872;2022-12-16T12:57:10;58.92;;;36.25;;
18574;SDS011;9417;16.484;102.872;2022-12-16T12:59:40;62.83;;;38.25;;
18574;SDS011;9417;16.484;102.872;2022-12-16T13:02:22;63.72;;;37.03;;
18574;SDS011;9417;16.484;102.872;2022-12-16T13:04:49;68.22;;;39.17;;
18574;SDS011;9417;16.484;102.872;2022-12-16T13:07:14;63.83;;;39.20;;
18574;SDS011;9417;16.484;102.872;2022-12-16T13:09:39;68.20;;;41.95;;
18574;SDS011;9417;16.484;102.872;2022-12-16T13:14:53;62.03;;;38.33;;
18574;SDS011;9417;16.484;102.872;2022-12-16T13:17:25;64.97;;;40.33;;
18574;SDS011;9417;16.484;102.872;2022-12-16T13:19:53;59.03;;;41.28;;
18574;SDS011;9417;16.484;102.872;2022-12-16T13:22:27;61.40;;;39.00;;
18574;SDS011;9417;16.484;102.872;2022-12-16T13:24:52;60.30;;;37.78;;
18574;SDS011;9417;16.484;102.872;2022-12-16T13:27:22;69.28;;;42.00;;
18574;SDS011;9417;16.484;102.872;2022-12-16T13:29:59;67.18;;;39.47;;
18574;SDS011;9417;16.484;102.872;2022-12-16T13:32:30;57.95;;;38.08;;
18574;SDS011;9417;16.484;102.872;2022-12-16T13:34:59;58.17;;;35.83;;
18574;SDS011;9417;16.484;102.872;2022-12-16T13:37:23;58.92;;;34.63;;
18574;SDS011;9417;16.484;102.872;2022-12-16T13:39:56;58.53;;;35.97;;
18574;SDS011;9417;16.484;102.872;2022-12-16T13:42:31;62.53;;;33.30;;
18574;SDS011;9417;16.484;102.872;2022-12-16T13:45:16;58.45;;;38.40;;